sensor_id;sensor_type;location;lat;lon;timestamp;P1;durP1;ratioP1;P2;durP2;ratioP2
47764;SDS011;33529;49.242;8.670;2023-04-25T00:02:11;4.35;;;2.25;;
47764;SDS011;33529;49.242;8.670;2023-04-25T00:04:37;5.00;;;2.97;;
47764;SDS011;33529;49.242;8.670;2023-04-25T00:07:05;4.05;;;2.60;;
47764;SDS011;33529;49.242;8.670;2023-04-25T00:09:32;5.50;;;2.92;;
47764;SDS011;33529;49.242;8.670;2023-04-25T00:11:59;4.88;;;2.55;;
47764;SDS011;33529;49.242;8.670;2023-04-25T00:14:28;4.25;;;2.47;;
47764;SDS011;33529;49.242;8.670;2023-04-25T00:16:55;3.63;;;2.10;;
47764;SDS011;33529;49.242;8.670;2023-04-25T00:19:22;4.15;;;2.67;;
47764;SDS011;33529;49.242;8.670;2023-04-25T00:21:49;4.65;;;2.38;;
47764;SDS011;33529;49.242;8.670;2023-04-25T00:24:16;4.40;;;2.58;;
47764;SDS011;33529;49.242;8.670;2023-04-25T00:26:43;4.53;;;2.45;;
47764;SDS011;33529;49.242;8.670;2023-04-25T00:29:10;5.18;;;2.53;;
47764;SDS011;33529;49.242;8.670;2023-04-25T00:31:37;3.72;;;2.45;;
47764;SDS011;33529;49.242;8.670;2023-04-25T00:34:05;5.22;;;2.80;;
47764;SDS011;33529;49.242;8.670;2023-04-25T00:36:34;4.28;;;2.03;;
47764;SDS011;33529;49.242;8.670;2023-04-25T00:39:01;4.65;;;2.50;;
47764;SDS011;33529;49.242;8.670;2023-04-25T00:41:29;3.15;;;1.85;;
47764;SDS011;33529;49.242;8.670;2023-04-25T00:43:56;3.88;;;2.50;;
47764;SDS011;33529;49.242;8.670;2023-04-25T00:46:23;4.10;;;2.22;;
47764;SDS011;33529;49.242;8.670;2023-04-25T00:48:50;4.45;;;2.67;;
47764;SDS011;33529;49.242;8.670;2023-04-25T00:51:19;4.53;;;2.53;;
47764;SDS011;33529;49.242;8.670;2023-04-25T00:53:47;4.03;;;2.40;;
47764;SDS011;33529;49.242;8.670;2023-04-25T00:56:16;4.70;;;2.92;;
47764;SDS011;33529;49.242;8.670;2023-04-25T00:58:43;3.88;;;2.20;;
47764;SDS011;33529;49.242;8.670;2023-04-25T01:01:11;4.72;;;2.60;;
47764;SDS011;33529;49.242;8.670;2023-04-25T01:03:39;5.93;;;2.85;;
47764;SDS011;33529;49.242;8.670;2023-04-25T01:06:10;3.80;;;2.30;;
47764;SDS011;33529;49.242;8.670;2023-04-25T01:08:38;4.35;;;2.72;;
47764;SDS011;33529;49.242;8.670;2023-04-25T01:11:05;3.45;;;2.45;;
47764;SDS011;33529;49.242;8.670;2023-04-25T01:13:32;5.43;;;2.85;;
47764;SDS011;33529;49.242;8.670;2023-04-25T01:16:01;3.40;;;2.00;;
47764;SDS011;33529;49.242;8.670;2023-04-25T01:18:28;4.10;;;2.53;;
47764;SDS011;33529;49.242;8.670;2023-04-25T01:20:55;4.32;;;2.38;;
47764;SDS011;33529;49.242;8.670;2023-04-25T01:23:33;4.10;;;2.28;;
47764;SDS011;33529;49.242;8.670;2023-04-25T01:26:00;4.47;;;2.67;;
47764;SDS011;33529;49.242;8.670;2023-04-25T01:28:28;4.68;;;2.28;;
47764;SDS011;33529;49.242;8.670;2023-04-25T01:30:55;4.65;;;2.17;;
47764;SDS011;33529;49.242;8.670;2023-04-25T01:33:23;4.18;;;2.08;;
47764;SDS011;33529;49.242;8.670;2023-04-25T01:35:51;3.70;;;2.22;;
47764;SDS011;33529;49.242;8.670;2023-04-25T01:38:19;3.90;;;2.13;;
47764;SDS011;33529;49.242;8.670;2023-04-25T01:40:46;4.03;;;2.33;;
47764;SDS011;33529;49.242;8.670;2023-04-25T01:43:18;3.50;;;2.05;;
47764;SDS011;33529;49.242;8.670;2023-04-25T01:45:45;5.60;;;2.95;;
47764;SDS011;33529;49.242;8.670;2023-04-25T01:48:13;5.05;;;2.40;;
47764;SDS011;33529;49.242;8.670;2023-04-25T01:50:42;4.40;;;2.67;;
47764;SDS011;33529;49.242;8.670;2023-04-25T01:53:11;4.07;;;2.17;;
47764;SDS011;33529;49.242;8.670;2023-04-25T01:55:43;3.97;;;2.40;;
47764;SDS011;33529;49.242;8.670;2023-04-25T01:58:13;4.15;;;2.25;;
47764;SDS011;33529;49.242;8.670;2023-04-25T02:00:59;3.70;;;2.20;;
47764;SDS011;33529;49.242;8.670;2023-04-25T02:03:32;4.97;;;2.33;;
47764;SDS011;33529;49.242;8.670;2023-04-25T02:06:02;3.92;;;2.30;;
47764;SDS011;33529;49.242;8.670;2023-04-25T02:08:32;4.97;;;2.40;;
47764;SDS011;33529;49.242;8.670;2023-04-25T02:10:59;4.53;;;2.25;;
47764;SDS011;33529;49.242;8.670;2023-04-25T02:13:33;3.83;;;2.20;;
47764;SDS011;33529;49.242;8.670;2023-04-25T02:16:13;3.97;;;2.40;;
47764;SDS011;33529;49.242;8.670;2023-04-25T02:18:40;4.55;;;2.58;;
47764;SDS011;33529;49.242;8.670;2023-04-25T02:21:07;3.80;;;2.50;;
47764;SDS011;33529;49.242;8.670;2023-04-25T02:23:34;4.50;;;2.63;;
47764;SDS011;33529;49.242;8.670;2023-04-25T02:26:01;4.47;;;2.40;;
47764;SDS011;33529;49.242;8.670;2023-04-25T02:28:29;4.80;;;2.40;;
47764;SDS011;33529;49.242;8.670;2023-04-25T02:30:56;4.82;;;2.58;;
47764;SDS011;33529;49.242;8.670;2023-04-25T02:33:23;6.95;;;3.25;;
47764;SDS011;33529;49.242;8.670;2023-04-25T02:35:50;5.03;;;3.03;;
47764;SDS011;33529;49.242;8.670;2023-04-25T02:38:20;4.03;;;2.75;;
47764;SDS011;33529;49.242;8.670;2023-04-25T02:40:48;5.50;;;3.00;;
47764;SDS011;33529;49.242;8.670;2023-04-25T02:43:14;4.82;;;3.13;;
47764;SDS011;33529;49.242;8.670;2023-04-25T02:45:42;5.22;;;3.15;;
47764;SDS011;33529;49.242;8.670;2023-04-25T02:48:09;5.68;;;2.58;;
47764;SDS011;33529;49.242;8.670;2023-04-25T02:50:36;4.63;;;2.97;;
47764;SDS011;33529;49.242;8.670;2023-04-25T02:53:02;5.40;;;2.70;;
47764;SDS011;33529;49.242;8.670;2023-04-25T02:55:36;5.55;;;3.00;;
47764;SDS011;33529;49.242;8.670;2023-04-25T02:58:04;4.22;;;2.40;;
47764;SDS011;33529;49.242;8.670;2023-04-25T03:00:39;5.70;;;2.97;;
47764;SDS011;33529;49.242;8.670;2023-04-25T03:03:06;5.13;;;2.90;;
47764;SDS011;33529;49.242;8.670;2023-04-25T03:05:33;5.68;;;3.15;;
47764;SDS011;33529;49.242;8.670;2023-04-25T03:08:00;4.90;;;2.95;;
47764;SDS011;33529;49.242;8.670;2023-04-25T03:10:27;5.90;;;3.65;;
47764;SDS011;33529;49.242;8.670;2023-04-25T03:13:00;5.00;;;3.08;;
47764;SDS011;33529;49.242;8.670;2023-04-25T03:15:27;5.18;;;2.90;;
47764;SDS011;33529;49.242;8.670;2023-04-25T03:17:54;4.80;;;2.88;;
47764;SDS011;33529;49.242;8.670;2023-04-25T03:20:22;5.22;;;3.25;;
47764;SDS011;33529;49.242;8.670;2023-04-25T03:22:49;4.68;;;2.75;;
47764;SDS011;33529;49.242;8.670;2023-04-25T03:25:17;6.07;;;3.10;;
47764;SDS011;33529;49.242;8.670;2023-04-25T03:27:44;5.25;;;3.55;;
47764;SDS011;33529;49.242;8.670;2023-04-25T03:30:11;5.03;;;3.10;;
47764;SDS011;33529;49.242;8.670;2023-04-25T03:32:39;4.82;;;3.10;;
47764;SDS011;33529;49.242;8.670;2023-04-25T03:35:06;5.68;;;3.20;;
47764;SDS011;33529;49.242;8.670;2023-04-25T03:37:33;6.97;;;3.15;;
47764;SDS011;33529;49.242;8.670;2023-04-25T03:40:01;4.97;;;2.95;;
47764;SDS011;33529;49.242;8.670;2023-04-25T03:42:49;6.20;;;3.05;;
47764;SDS011;33529;49.242;8.670;2023-04-25T03:45:16;5.95;;;3.25;;
47764;SDS011;33529;49.242;8.670;2023-04-25T03:47:43;5.90;;;3.13;;
47764;SDS011;33529;49.242;8.670;2023-04-25T03:50:10;6.75;;;3.15;;
47764;SDS011;33529;49.242;8.670;2023-04-25T03:52:37;4.80;;;2.90;;
47764;SDS011;33529;49.242;8.670;2023-04-25T03:55:04;6.57;;;3.42;;
47764;SDS011;33529;49.242;8.670;2023-04-25T03:57:31;5.25;;;3.13;;
47764;SDS011;33529;49.242;8.670;2023-04-25T03:59:58;5.53;;;3.25;;
47764;SDS011;33529;49.242;8.670;2023-04-25T04:02:27;6.50;;;3.53;;
47764;SDS011;33529;49.242;8.670;2023-04-25T04:04:55;4.55;;;3.03;;
47764;SDS011;33529;49.242;8.670;2023-04-25T04:07:23;5.05;;;2.90;;
47764;SDS011;33529;49.242;8.670;2023-04-25T04:09:54;4.82;;;2.97;;
47764;SDS011;33529;49.242;8.670;2023-04-25T04:12:29;5.70;;;3.22;;
47764;SDS011;33529;49.242;8.670;2023-04-25T04:14:56;5.28;;;2.80;;
47764;SDS011;33529;49.242;8.670;2023-04-25T04:17:23;6.45;;;3.63;;
47764;SDS011;33529;49.242;8.670;2023-04-25T04:19:50;5.43;;;2.90;;
47764;SDS011;33529;49.242;8.670;2023-04-25T04:22:18;4.40;;;2.83;;
47764;SDS011;33529;49.242;8.670;2023-04-25T04:24:47;5.05;;;3.20;;
47764;SDS011;33529;49.242;8.670;2023-04-25T04:27:22;6.78;;;3.45;;
47764;SDS011;33529;49.242;8.670;2023-04-25T04:30:05;6.45;;;3.47;;
47764;SDS011;33529;49.242;8.670;2023-04-25T04:32:37;7.05;;;3.30;;
47764;SDS011;33529;49.242;8.670;2023-04-25T04:35:04;5.28;;;3.03;;
47764;SDS011;33529;49.242;8.670;2023-04-25T04:37:32;5.85;;;3.38;;
47764;SDS011;33529;49.242;8.670;2023-04-25T04:40:00;6.47;;;3.40;;
47764;SDS011;33529;49.242;8.670;2023-04-25T04:42:44;6.10;;;3.72;;
47764;SDS011;33529;49.242;8.670;2023-04-25T04:45:30;6.28;;;3.58;;
47764;SDS011;33529;49.242;8.670;2023-04-25T04:48:21;5.65;;;3.60;;
47764;SDS011;33529;49.242;8.670;2023-04-25T04:50:59;4.88;;;3.15;;
47764;SDS011;33529;49.242;8.670;2023-04-25T04:53:46;5.95;;;3.22;;
47764;SDS011;33529;49.242;8.670;2023-04-25T04:56:20;7.03;;;4.15;;
47764;SDS011;33529;49.242;8.670;2023-04-25T04:58:59;5.32;;;2.85;;
47764;SDS011;33529;49.242;8.670;2023-04-25T05:01:36;6.05;;;3.28;;
47764;SDS011;33529;49.242;8.670;2023-04-25T05:04:15;5.80;;;3.33;;
47764;SDS011;33529;49.242;8.670;2023-04-25T05:06:42;6.30;;;3.83;;
47764;SDS011;33529;49.242;8.670;2023-04-25T05:09:46;7.70;;;3.42;;
47764;SDS011;33529;49.242;8.670;2023-04-25T05:12:39;7.13;;;3.40;;
47764;SDS011;33529;49.242;8.670;2023-04-25T05:15:14;5.78;;;3.33;;
47764;SDS011;33529;49.242;8.670;2023-04-25T05:18:19;6.30;;;3.42;;
47764;SDS011;33529;49.242;8.670;2023-04-25T05:21:12;6.57;;;3.63;;
47764;SDS011;33529;49.242;8.670;2023-04-25T05:23:53;6.53;;;3.78;;
47764;SDS011;33529;49.242;8.670;2023-04-25T05:26:39;6.32;;;3.30;;
47764;SDS011;33529;49.242;8.670;2023-04-25T05:29:32;4.95;;;3.30;;
47764;SDS011;33529;49.242;8.670;2023-04-25T05:32:14;6.53;;;3.30;;
47764;SDS011;33529;49.242;8.670;2023-04-25T05:34:41;5.93;;;3.45;;
47764;SDS011;33529;49.242;8.670;2023-04-25T05:37:20;6.22;;;3.55;;
47764;SDS011;33529;49.242;8.670;2023-04-25T05:40:03;6.30;;;3.45;;
47764;SDS011;33529;49.242;8.670;2023-04-25T05:42:52;5.80;;;3.35;;
47764;SDS011;33529;49.242;8.670;2023-04-25T05:45:30;7.03;;;3.83;;
47764;SDS011;33529;49.242;8.670;2023-04-25T05:48:10;7.57;;;4.10;;
47764;SDS011;33529;49.242;8.670;2023-04-25T05:51:03;7.22;;;4.30;;
47764;SDS011;33529;49.242;8.670;2023-04-25T05:53:52;6.65;;;3.67;;
47764;SDS011;33529;49.242;8.670;2023-04-25T05:56:20;7.07;;;3.78;;
47764;SDS011;33529;49.242;8.670;2023-04-25T05:58:50;6.60;;;4.03;;
47764;SDS011;33529;49.242;8.670;2023-04-25T06:01:17;5.68;;;3.88;;
47764;SDS011;33529;49.242;8.670;2023-04-25T06:03:44;8.00;;;3.78;;
47764;SDS011;33529;49.242;8.670;2023-04-25T06:06:11;8.60;;;3.85;;
47764;SDS011;33529;49.242;8.670;2023-04-25T06:08:38;6.35;;;3.78;;
47764;SDS011;33529;49.242;8.670;2023-04-25T06:11:05;6.80;;;3.80;;
47764;SDS011;33529;49.242;8.670;2023-04-25T06:13:32;8.05;;;4.22;;
47764;SDS011;33529;49.242;8.670;2023-04-25T06:16:00;6.20;;;3.95;;
47764;SDS011;33529;49.242;8.670;2023-04-25T06:18:28;6.10;;;3.97;;
47764;SDS011;33529;49.242;8.670;2023-04-25T06:20:55;5.88;;;4.15;;
47764;SDS011;33529;49.242;8.670;2023-04-25T06:23:23;6.57;;;4.30;;
47764;SDS011;33529;49.242;8.670;2023-04-25T06:25:56;6.13;;;3.72;;
47764;SDS011;33529;49.242;8.670;2023-04-25T06:28:24;7.13;;;4.50;;
47764;SDS011;33529;49.242;8.670;2023-04-25T06:30:50;8.50;;;4.78;;
47764;SDS011;33529;49.242;8.670;2023-04-25T06:33:18;5.65;;;4.00;;
47764;SDS011;33529;49.242;8.670;2023-04-25T06:35:46;7.65;;;4.35;;
47764;SDS011;33529;49.242;8.670;2023-04-25T06:38:16;7.03;;;4.22;;
47764;SDS011;33529;49.242;8.670;2023-04-25T06:40:50;6.53;;;4.22;;
47764;SDS011;33529;49.242;8.670;2023-04-25T06:43:19;6.28;;;3.90;;
47764;SDS011;33529;49.242;8.670;2023-04-25T06:46:04;6.15;;;4.00;;
47764;SDS011;33529;49.242;8.670;2023-04-25T06:48:36;8.50;;;4.53;;
47764;SDS011;33529;49.242;8.670;2023-04-25T06:51:04;7.45;;;4.70;;
47764;SDS011;33529;49.242;8.670;2023-04-25T06:53:33;6.32;;;4.18;;
47764;SDS011;33529;49.242;8.670;2023-04-25T06:56:02;8.15;;;5.50;;
47764;SDS011;33529;49.242;8.670;2023-04-25T06:58:42;6.68;;;4.30;;
47764;SDS011;33529;49.242;8.670;2023-04-25T07:03:41;6.93;;;4.20;;
47764;SDS011;33529;49.242;8.670;2023-04-25T07:06:15;9.10;;;4.60;;
47764;SDS011;33529;49.242;8.670;2023-04-25T07:08:43;7.50;;;4.95;;
47764;SDS011;33529;49.242;8.670;2023-04-25T07:11:10;8.07;;;4.70;;
47764;SDS011;33529;49.242;8.670;2023-04-25T07:13:37;6.68;;;4.32;;
47764;SDS011;33529;49.242;8.670;2023-04-25T07:16:04;8.20;;;4.50;;
47764;SDS011;33529;49.242;8.670;2023-04-25T07:18:33;6.85;;;4.28;;
47764;SDS011;33529;49.242;8.670;2023-04-25T07:21:01;7.53;;;4.55;;
47764;SDS011;33529;49.242;8.670;2023-04-25T07:26:04;8.70;;;4.93;;
47764;SDS011;33529;49.242;8.670;2023-04-25T07:28:31;8.05;;;5.07;;
47764;SDS011;33529;49.242;8.670;2023-04-25T07:30:58;9.63;;;5.35;;
47764;SDS011;33529;49.242;8.670;2023-04-25T07:33:25;8.10;;;4.68;;
47764;SDS011;33529;49.242;8.670;2023-04-25T07:35:53;11.35;;;6.45;;
47764;SDS011;33529;49.242;8.670;2023-04-25T07:38:21;7.95;;;4.40;;
47764;SDS011;33529;49.242;8.670;2023-04-25T07:40:49;9.25;;;5.43;;
47764;SDS011;33529;49.242;8.670;2023-04-25T07:43:16;8.23;;;5.10;;
47764;SDS011;33529;49.242;8.670;2023-04-25T07:45:53;8.52;;;5.25;;
47764;SDS011;33529;49.242;8.670;2023-04-25T07:48:20;8.23;;;4.40;;
47764;SDS011;33529;49.242;8.670;2023-04-25T07:50:50;8.35;;;5.05;;
47764;SDS011;33529;49.242;8.670;2023-04-25T07:53:17;10.68;;;5.70;;
47764;SDS011;33529;49.242;8.670;2023-04-25T07:55:50;10.63;;;5.38;;
47764;SDS011;33529;49.242;8.670;2023-04-25T07:58:19;9.00;;;5.13;;
47764;SDS011;33529;49.242;8.670;2023-04-25T08:00:52;10.38;;;6.28;;
47764;SDS011;33529;49.242;8.670;2023-04-25T08:03:41;10.95;;;7.30;;
47764;SDS011;33529;49.242;8.670;2023-04-25T08:06:24;8.55;;;5.93;;
47764;SDS011;33529;49.242;8.670;2023-04-25T08:09:03;9.65;;;5.60;;
47764;SDS011;33529;49.242;8.670;2023-04-25T08:11:36;11.10;;;6.00;;
47764;SDS011;33529;49.242;8.670;2023-04-25T08:14:05;12.30;;;6.45;;
47764;SDS011;33529;49.242;8.670;2023-04-25T08:16:33;10.88;;;6.13;;
47764;SDS011;33529;49.242;8.670;2023-04-25T08:19:02;12.27;;;5.65;;
47764;SDS011;33529;49.242;8.670;2023-04-25T08:21:29;9.50;;;4.97;;
47764;SDS011;33529;49.242;8.670;2023-04-25T08:24:00;9.05;;;4.80;;
47764;SDS011;33529;49.242;8.670;2023-04-25T08:26:31;6.40;;;3.95;;
47764;SDS011;33529;49.242;8.670;2023-04-25T08:28:59;6.90;;;3.85;;
47764;SDS011;33529;49.242;8.670;2023-04-25T08:31:27;6.72;;;3.88;;
47764;SDS011;33529;49.242;8.670;2023-04-25T08:33:57;6.47;;;3.63;;
47764;SDS011;33529;49.242;8.670;2023-04-25T08:36:50;7.90;;;4.47;;
47764;SDS011;33529;49.242;8.670;2023-04-25T08:39:43;7.45;;;4.10;;
47764;SDS011;33529;49.242;8.670;2023-04-25T08:42:40;9.10;;;3.83;;
47764;SDS011;33529;49.242;8.670;2023-04-25T08:45:09;7.95;;;3.97;;
47764;SDS011;33529;49.242;8.670;2023-04-25T08:47:38;8.85;;;4.88;;
47764;SDS011;33529;49.242;8.670;2023-04-25T08:50:06;9.18;;;4.78;;
47764;SDS011;33529;49.242;8.670;2023-04-25T08:52:36;8.38;;;3.55;;
47764;SDS011;33529;49.242;8.670;2023-04-25T08:55:09;8.63;;;3.97;;
47764;SDS011;33529;49.242;8.670;2023-04-25T08:57:39;9.02;;;5.43;;
47764;SDS011;33529;49.242;8.670;2023-04-25T09:00:12;8.20;;;3.85;;
47764;SDS011;33529;49.242;8.670;2023-04-25T09:02:42;8.82;;;3.58;;
47764;SDS011;33529;49.242;8.670;2023-04-25T09:05:12;7.07;;;4.07;;
47764;SDS011;33529;49.242;8.670;2023-04-25T09:07:40;7.40;;;3.58;;
47764;SDS011;33529;49.242;8.670;2023-04-25T09:10:07;7.18;;;3.85;;
47764;SDS011;33529;49.242;8.670;2023-04-25T09:12:36;5.53;;;3.08;;
47764;SDS011;33529;49.242;8.670;2023-04-25T09:15:07;6.03;;;2.97;;
47764;SDS011;33529;49.242;8.670;2023-04-25T09:18:00;5.80;;;2.92;;
47764;SDS011;33529;49.242;8.670;2023-04-25T09:20:40;5.28;;;3.20;;
47764;SDS011;33529;49.242;8.670;2023-04-25T09:23:25;7.18;;;3.42;;
47764;SDS011;33529;49.242;8.670;2023-04-25T09:25:53;6.47;;;3.08;;
47764;SDS011;33529;49.242;8.670;2023-04-25T09:28:22;6.00;;;2.60;;
47764;SDS011;33529;49.242;8.670;2023-04-25T09:30:54;5.13;;;2.85;;
47764;SDS011;33529;49.242;8.670;2023-04-25T09:33:43;7.60;;;3.13;;
47764;SDS011;33529;49.242;8.670;2023-04-25T09:36:10;6.50;;;3.15;;
47764;SDS011;33529;49.242;8.670;2023-04-25T09:38:50;4.68;;;2.78;;
47764;SDS011;33529;49.242;8.670;2023-04-25T09:41:23;5.18;;;3.03;;
47764;SDS011;33529;49.242;8.670;2023-04-25T09:43:56;5.60;;;2.85;;
47764;SDS011;33529;49.242;8.670;2023-04-25T09:46:32;9.05;;;2.90;;
47764;SDS011;33529;49.242;8.670;2023-04-25T09:49:06;4.97;;;2.65;;
47764;SDS011;33529;49.242;8.670;2023-04-25T09:51:57;4.65;;;3.22;;
47764;SDS011;33529;49.242;8.670;2023-04-25T09:54:30;7.68;;;3.10;;
47764;SDS011;33529;49.242;8.670;2023-04-25T09:57:09;5.75;;;3.15;;
47764;SDS011;33529;49.242;8.670;2023-04-25T09:59:38;6.35;;;2.95;;
47764;SDS011;33529;49.242;8.670;2023-04-25T10:02:09;6.22;;;3.47;;
47764;SDS011;33529;49.242;8.670;2023-04-25T10:04:38;6.10;;;2.72;;
47764;SDS011;33529;49.242;8.670;2023-04-25T10:07:14;4.38;;;2.53;;
47764;SDS011;33529;49.242;8.670;2023-04-25T10:09:44;7.57;;;3.67;;
47764;SDS011;33529;49.242;8.670;2023-04-25T10:12:16;5.40;;;2.95;;
47764;SDS011;33529;49.242;8.670;2023-04-25T10:14:43;5.93;;;3.38;;
47764;SDS011;33529;49.242;8.670;2023-04-25T10:17:11;8.55;;;3.25;;
47764;SDS011;33529;49.242;8.670;2023-04-25T10:19:38;5.30;;;2.88;;
47764;SDS011;33529;49.242;8.670;2023-04-25T10:22:07;6.63;;;2.20;;
47764;SDS011;33529;49.242;8.670;2023-04-25T10:24:40;4.82;;;2.47;;
47764;SDS011;33529;49.242;8.670;2023-04-25T10:27:09;4.35;;;2.47;;
47764;SDS011;33529;49.242;8.670;2023-04-25T10:29:37;6.18;;;2.75;;
47764;SDS011;33529;49.242;8.670;2023-04-25T10:32:03;5.30;;;2.70;;
47764;SDS011;33529;49.242;8.670;2023-04-25T10:34:43;4.80;;;2.47;;
47764;SDS011;33529;49.242;8.670;2023-04-25T10:37:13;5.97;;;2.60;;
47764;SDS011;33529;49.242;8.670;2023-04-25T10:39:41;6.13;;;3.00;;
47764;SDS011;33529;49.242;8.670;2023-04-25T10:42:09;5.13;;;3.22;;
47764;SDS011;33529;49.242;8.670;2023-04-25T10:44:37;5.07;;;2.90;;
47764;SDS011;33529;49.242;8.670;2023-04-25T10:47:07;5.00;;;2.58;;
47764;SDS011;33529;49.242;8.670;2023-04-25T10:49:37;5.45;;;2.90;;
47764;SDS011;33529;49.242;8.670;2023-04-25T10:54:48;5.07;;;3.05;;
47764;SDS011;33529;49.242;8.670;2023-04-25T11:00:11;5.95;;;3.33;;
47764;SDS011;33529;49.242;8.670;2023-04-25T11:02:46;8.45;;;3.55;;
47764;SDS011;33529;49.242;8.670;2023-04-25T11:05:32;7.78;;;3.80;;
47764;SDS011;33529;49.242;8.670;2023-04-25T11:08:16;5.80;;;3.88;;
47764;SDS011;33529;49.242;8.670;2023-04-25T11:10:59;7.45;;;4.40;;
47764;SDS011;33529;49.242;8.670;2023-04-25T11:13:30;7.28;;;3.92;;
47764;SDS011;33529;49.242;8.670;2023-04-25T11:15:56;6.25;;;3.60;;
47764;SDS011;33529;49.242;8.670;2023-04-25T11:18:40;8.73;;;3.80;;
47764;SDS011;33529;49.242;8.670;2023-04-25T11:21:07;6.72;;;3.30;;
47764;SDS011;33529;49.242;8.670;2023-04-25T11:23:34;7.55;;;3.55;;
47764;SDS011;33529;49.242;8.670;2023-04-25T11:26:02;7.07;;;3.50;;
47764;SDS011;33529;49.242;8.670;2023-04-25T11:28:30;8.25;;;3.42;;
47764;SDS011;33529;49.242;8.670;2023-04-25T11:30:57;9.13;;;4.22;;
47764;SDS011;33529;49.242;8.670;2023-04-25T11:33:24;8.00;;;4.03;;
47764;SDS011;33529;49.242;8.670;2023-04-25T11:35:53;7.00;;;3.47;;
47764;SDS011;33529;49.242;8.670;2023-04-25T11:38:24;5.22;;;3.28;;
47764;SDS011;33529;49.242;8.670;2023-04-25T11:40:54;6.65;;;3.45;;
47764;SDS011;33529;49.242;8.670;2023-04-25T11:43:21;5.93;;;3.13;;
47764;SDS011;33529;49.242;8.670;2023-04-25T11:45:49;4.50;;;2.47;;
47764;SDS011;33529;49.242;8.670;2023-04-25T11:48:19;4.30;;;2.83;;
47764;SDS011;33529;49.242;8.670;2023-04-25T11:50:51;8.52;;;3.40;;
47764;SDS011;33529;49.242;8.670;2023-04-25T11:53:19;4.68;;;2.78;;
47764;SDS011;33529;49.242;8.670;2023-04-25T11:55:46;4.82;;;2.63;;
47764;SDS011;33529;49.242;8.670;2023-04-25T11:58:13;5.75;;;3.10;;
47764;SDS011;33529;49.242;8.670;2023-04-25T12:00:41;5.43;;;2.65;;
47764;SDS011;33529;49.242;8.670;2023-04-25T12:03:16;5.80;;;3.22;;
47764;SDS011;33529;49.242;8.670;2023-04-25T12:05:44;4.68;;;3.05;;
47764;SDS011;33529;49.242;8.670;2023-04-25T12:08:13;5.20;;;3.05;;
47764;SDS011;33529;49.242;8.670;2023-04-25T12:10:41;6.13;;;3.15;;
47764;SDS011;33529;49.242;8.670;2023-04-25T12:13:19;5.63;;;3.08;;
47764;SDS011;33529;49.242;8.670;2023-04-25T12:15:48;4.43;;;2.60;;
47764;SDS011;33529;49.242;8.670;2023-04-25T12:18:18;8.10;;;3.67;;
47764;SDS011;33529;49.242;8.670;2023-04-25T12:20:46;4.03;;;2.40;;
47764;SDS011;33529;49.242;8.670;2023-04-25T12:23:12;6.60;;;3.25;;
47764;SDS011;33529;49.242;8.670;2023-04-25T12:25:40;7.43;;;3.60;;
47764;SDS011;33529;49.242;8.670;2023-04-25T12:28:15;5.75;;;3.33;;
47764;SDS011;33529;49.242;8.670;2023-04-25T12:31:01;5.03;;;2.67;;
47764;SDS011;33529;49.242;8.670;2023-04-25T12:33:34;6.63;;;2.92;;
47764;SDS011;33529;49.242;8.670;2023-04-25T12:36:03;6.60;;;3.38;;
47764;SDS011;33529;49.242;8.670;2023-04-25T12:38:35;4.93;;;2.45;;
47764;SDS011;33529;49.242;8.670;2023-04-25T12:41:05;5.18;;;2.70;;
47764;SDS011;33529;49.242;8.670;2023-04-25T12:43:32;4.93;;;2.60;;
47764;SDS011;33529;49.242;8.670;2023-04-25T12:45:59;4.32;;;2.47;;
47764;SDS011;33529;49.242;8.670;2023-04-25T12:48:27;4.85;;;2.70;;
47764;SDS011;33529;49.242;8.670;2023-04-25T12:50:53;5.20;;;2.10;;
47764;SDS011;33529;49.242;8.670;2023-04-25T12:53:22;4.75;;;2.83;;
47764;SDS011;33529;49.242;8.670;2023-04-25T12:55:52;6.35;;;2.67;;
47764;SDS011;33529;49.242;8.670;2023-04-25T12:58:19;4.43;;;2.33;;
47764;SDS011;33529;49.242;8.670;2023-04-25T13:00:46;4.15;;;2.40;;
47764;SDS011;33529;49.242;8.670;2023-04-25T13:03:14;4.72;;;2.13;;
47764;SDS011;33529;49.242;8.670;2023-04-25T13:05:41;3.67;;;2.20;;
47764;SDS011;33529;49.242;8.670;2023-04-25T13:08:09;6.07;;;2.05;;
47764;SDS011;33529;49.242;8.670;2023-04-25T13:10:35;5.28;;;2.47;;
47764;SDS011;33529;49.242;8.670;2023-04-25T13:13:04;4.32;;;2.58;;
47764;SDS011;33529;49.242;8.670;2023-04-25T13:15:31;5.75;;;2.65;;
47764;SDS011;33529;49.242;8.670;2023-04-25T13:17:58;4.80;;;2.75;;
47764;SDS011;33529;49.242;8.670;2023-04-25T13:20:25;5.00;;;2.72;;
47764;SDS011;33529;49.242;8.670;2023-04-25T13:22:52;3.95;;;2.30;;
47764;SDS011;33529;49.242;8.670;2023-04-25T13:25:19;5.05;;;2.65;;
47764;SDS011;33529;49.242;8.670;2023-04-25T13:27:46;4.53;;;2.45;;
47764;SDS011;33529;49.242;8.670;2023-04-25T13:30:12;4.72;;;2.85;;
47764;SDS011;33529;49.242;8.670;2023-04-25T13:32:40;4.55;;;2.50;;
47764;SDS011;33529;49.242;8.670;2023-04-25T13:35:08;3.30;;;1.83;;
47764;SDS011;33529;49.242;8.670;2023-04-25T13:37:40;3.25;;;1.55;;
47764;SDS011;33529;49.242;8.670;2023-04-25T13:40:08;3.42;;;1.88;;
47764;SDS011;33529;49.242;8.670;2023-04-25T13:42:36;4.18;;;1.88;;
47764;SDS011;33529;49.242;8.670;2023-04-25T13:45:04;2.90;;;1.75;;
47764;SDS011;33529;49.242;8.670;2023-04-25T13:47:32;3.10;;;2.05;;
47764;SDS011;33529;49.242;8.670;2023-04-25T13:50:00;3.40;;;1.88;;
47764;SDS011;33529;49.242;8.670;2023-04-25T13:52:29;2.55;;;1.58;;
47764;SDS011;33529;49.242;8.670;2023-04-25T13:54:56;7.05;;;2.13;;
47764;SDS011;33529;49.242;8.670;2023-04-25T13:57:23;4.65;;;2.20;;
47764;SDS011;33529;49.242;8.670;2023-04-25T13:59:50;3.50;;;1.70;;
47764;SDS011;33529;49.242;8.670;2023-04-25T14:02:17;3.72;;;2.05;;
47764;SDS011;33529;49.242;8.670;2023-04-25T14:04:44;3.22;;;1.98;;
47764;SDS011;33529;49.242;8.670;2023-04-25T14:07:13;4.10;;;2.30;;
47764;SDS011;33529;49.242;8.670;2023-04-25T14:09:42;4.43;;;2.00;;
47764;SDS011;33529;49.242;8.670;2023-04-25T14:12:09;4.57;;;2.08;;
47764;SDS011;33529;49.242;8.670;2023-04-25T14:14:37;3.35;;;2.08;;
47764;SDS011;33529;49.242;8.670;2023-04-25T14:17:04;5.60;;;2.08;;
47764;SDS011;33529;49.242;8.670;2023-04-25T14:19:31;3.72;;;2.30;;
47764;SDS011;33529;49.242;8.670;2023-04-25T14:21:57;3.83;;;2.33;;
47764;SDS011;33529;49.242;8.670;2023-04-25T14:24:24;4.25;;;2.10;;
47764;SDS011;33529;49.242;8.670;2023-04-25T14:26:51;5.97;;;2.00;;
47764;SDS011;33529;49.242;8.670;2023-04-25T14:29:18;5.60;;;2.67;;
47764;SDS011;33529;49.242;8.670;2023-04-25T14:31:45;4.03;;;2.30;;
47764;SDS011;33529;49.242;8.670;2023-04-25T14:34:12;4.13;;;2.70;;
47764;SDS011;33529;49.242;8.670;2023-04-25T14:36:38;3.80;;;2.33;;
47764;SDS011;33529;49.242;8.670;2023-04-25T14:39:05;4.60;;;2.58;;
47764;SDS011;33529;49.242;8.670;2023-04-25T14:41:32;4.35;;;2.63;;
47764;SDS011;33529;49.242;8.670;2023-04-25T14:43:59;3.65;;;2.35;;
47764;SDS011;33529;49.242;8.670;2023-04-25T14:46:26;4.88;;;2.75;;
47764;SDS011;33529;49.242;8.670;2023-04-25T14:48:53;6.40;;;2.90;;
47764;SDS011;33529;49.242;8.670;2023-04-25T14:51:22;3.72;;;2.45;;
47764;SDS011;33529;49.242;8.670;2023-04-25T14:53:49;4.63;;;2.72;;
47764;SDS011;33529;49.242;8.670;2023-04-25T14:56:17;4.85;;;2.65;;
47764;SDS011;33529;49.242;8.670;2023-04-25T14:58:45;8.15;;;2.92;;
47764;SDS011;33529;49.242;8.670;2023-04-25T15:01:12;4.70;;;2.58;;
47764;SDS011;33529;49.242;8.670;2023-04-25T15:03:42;4.40;;;2.97;;
47764;SDS011;33529;49.242;8.670;2023-04-25T15:06:09;5.18;;;2.75;;
47764;SDS011;33529;49.242;8.670;2023-04-25T15:08:36;9.32;;;2.90;;
47764;SDS011;33529;49.242;8.670;2023-04-25T15:11:03;6.30;;;2.80;;
47764;SDS011;33529;49.242;8.670;2023-04-25T15:13:30;4.50;;;2.25;;
47764;SDS011;33529;49.242;8.670;2023-04-25T15:15:57;4.22;;;2.33;;
47764;SDS011;33529;49.242;8.670;2023-04-25T15:18:24;5.95;;;2.75;;
47764;SDS011;33529;49.242;8.670;2023-04-25T15:20:52;4.25;;;2.55;;